Welcome, Texas
Current Conditions -  °F | °C
As of 11:55 PM on Saturday 22 Nov 2014 (Local Time) from K11R Reporting Station
Light Rain Light Rain  
Wind Chill: 61°   Ceiling: Unl
Heat Index: 61°   Visibility: 10mi
Dew Point: 60°   Wind: 6mph
Humidity: 96%   Direction: 50°NE
Pressure: 29.71"   Gusts: NA
Location:  29.9936°N, 96.5297°W
Report Text: K11R 230555Z AUTO 05005KT 10SM -RA SCT006 SCT011 SCT024 16/16 A2971 RMK AO2 LTG DSNT SE P0016 60138 T01630156 10205 20163 402050163
Loading
Personal Weather Stations






























Interactive Weather Map New forecast layout! Learn more

10-Day Weather Forecast

Advertisements
Track Severe Weather on mobile